Norfolk, Virginia
Traffic Map
Current Weather Conditions
Norfolk, Virginia
Clear
Clear
67°
Feels Like: 67°
Wind Chill: 67° Ceiling: Unl
Heat Index: 67° Visibility: 10mi
Dew Point: 60° Wind: 3mph
Humidity: 79% Direction: 190° (S)
Pressure: 30.02in Gusts: 0mph
Raw Report DataKORF 260651Z AUTO 19003KT 10SM CLR 19/16 A3002 RMK AO2 SLP164 T01940156 TSNO
Traffic Incident Summary
Active as of:
Severity:
Category:
InformationThere was an issue retrieving the traffic information for this location. Please try a different location or try again shortly.
Advertisements
Track Severe Weather on mobile